sensor_id;sensor_type;location;lat;lon;timestamp;P1;durP1;ratioP1;P2;durP2;ratioP2
65230;SDS011;51813;40.666;16.602;2024-03-22T00:00:55;5.15;;;3.80;;
65230;SDS011;51813;40.666;16.602;2024-03-22T00:03:20;5.05;;;3.47;;
65230;SDS011;51813;40.666;16.602;2024-03-22T00:05:47;5.03;;;3.47;;
65230;SDS011;51813;40.666;16.602;2024-03-22T00:08:12;4.07;;;3.08;;
65230;SDS011;51813;40.666;16.602;2024-03-22T00:10:38;5.65;;;3.42;;
65230;SDS011;51813;40.666;16.602;2024-03-22T00:13:04;4.10;;;3.00;;
65230;SDS011;51813;40.666;16.602;2024-03-22T00:15:29;5.78;;;3.60;;
65230;SDS011;51813;40.666;16.602;2024-03-22T00:17:55;5.10;;;3.50;;
65230;SDS011;51813;40.666;16.602;2024-03-22T00:20:21;5.47;;;3.47;;
65230;SDS011;51813;40.666;16.602;2024-03-22T00:22:46;4.82;;;3.42;;
65230;SDS011;51813;40.666;16.602;2024-03-22T00:25:12;4.63;;;3.40;;
65230;SDS011;51813;40.666;16.602;2024-03-22T00:27:37;4.43;;;3.35;;
65230;SDS011;51813;40.666;16.602;2024-03-22T00:30:03;4.13;;;3.20;;
65230;SDS011;51813;40.666;16.602;2024-03-22T00:32:29;5.78;;;3.72;;
65230;SDS011;51813;40.666;16.602;2024-03-22T00:34:55;4.38;;;2.90;;
65230;SDS011;51813;40.666;16.602;2024-03-22T00:37:21;5.40;;;3.70;;
65230;SDS011;51813;40.666;16.602;2024-03-22T00:39:46;4.30;;;3.05;;
65230;SDS011;51813;40.666;16.602;2024-03-22T00:42:12;5.05;;;3.50;;
65230;SDS011;51813;40.666;16.602;2024-03-22T00:44:38;7.53;;;4.18;;
65230;SDS011;51813;40.666;16.602;2024-03-22T00:47:04;5.60;;;3.53;;
65230;SDS011;51813;40.666;16.602;2024-03-22T00:49:30;3.65;;;3.00;;
65230;SDS011;51813;40.666;16.602;2024-03-22T00:51:56;4.57;;;3.42;;
65230;SDS011;51813;40.666;16.602;2024-03-22T00:54:22;5.78;;;3.40;;
65230;SDS011;51813;40.666;16.602;2024-03-22T00:56:48;5.38;;;3.53;;
65230;SDS011;51813;40.666;16.602;2024-03-22T00:59:14;4.57;;;3.05;;
65230;SDS011;51813;40.666;16.602;2024-03-22T01:01:40;3.83;;;2.90;;
65230;SDS011;51813;40.666;16.602;2024-03-22T01:04:05;3.70;;;2.90;;
65230;SDS011;51813;40.666;16.602;2024-03-22T01:06:34;4.47;;;2.88;;
65230;SDS011;51813;40.666;16.602;2024-03-22T01:08:59;3.88;;;2.83;;
65230;SDS011;51813;40.666;16.602;2024-03-22T01:11:25;4.57;;;2.80;;
65230;SDS011;51813;40.666;16.602;2024-03-22T01:13:51;4.20;;;2.90;;
65230;SDS011;51813;40.666;16.602;2024-03-22T01:16:17;4.15;;;2.60;;
65230;SDS011;51813;40.666;16.602;2024-03-22T01:18:42;3.75;;;2.33;;
65230;SDS011;51813;40.666;16.602;2024-03-22T01:21:08;4.03;;;2.70;;
65230;SDS011;51813;40.666;16.602;2024-03-22T01:23:33;3.95;;;2.70;;
65230;SDS011;51813;40.666;16.602;2024-03-22T01:25:59;4.35;;;3.00;;
65230;SDS011;51813;40.666;16.602;2024-03-22T01:28:25;4.88;;;3.08;;
65230;SDS011;51813;40.666;16.602;2024-03-22T01:30:50;4.55;;;2.80;;
65230;SDS011;51813;40.666;16.602;2024-03-22T01:33:16;4.45;;;2.92;;
65230;SDS011;51813;40.666;16.602;2024-03-22T01:35:42;4.30;;;2.80;;
65230;SDS011;51813;40.666;16.602;2024-03-22T01:38:07;4.20;;;3.08;;
65230;SDS011;51813;40.666;16.602;2024-03-22T01:40:33;3.65;;;2.55;;
65230;SDS011;51813;40.666;16.602;2024-03-22T01:42:59;3.38;;;2.40;;
65230;SDS011;51813;40.666;16.602;2024-03-22T01:45:25;4.18;;;2.90;;
65230;SDS011;51813;40.666;16.602;2024-03-22T01:47:51;4.35;;;2.95;;
65230;SDS011;51813;40.666;16.602;2024-03-22T01:50:21;3.72;;;2.45;;
65230;SDS011;51813;40.666;16.602;2024-03-22T01:52:47;3.53;;;2.85;;
65230;SDS011;51813;40.666;16.602;2024-03-22T01:55:13;3.85;;;2.55;;
65230;SDS011;51813;40.666;16.602;2024-03-22T01:57:39;3.47;;;2.30;;
65230;SDS011;51813;40.666;16.602;2024-03-22T02:00:05;3.25;;;2.58;;
65230;SDS011;51813;40.666;16.602;2024-03-22T02:02:33;4.18;;;2.83;;
65230;SDS011;51813;40.666;16.602;2024-03-22T02:04:59;3.40;;;2.45;;
65230;SDS011;51813;40.666;16.602;2024-03-22T02:07:36;3.95;;;2.80;;
65230;SDS011;51813;40.666;16.602;2024-03-22T02:10:01;4.13;;;2.35;;
65230;SDS011;51813;40.666;16.602;2024-03-22T02:12:27;3.90;;;2.70;;
65230;SDS011;51813;40.666;16.602;2024-03-22T02:14:53;4.03;;;2.97;;
65230;SDS011;51813;40.666;16.602;2024-03-22T02:17:18;4.07;;;2.88;;
65230;SDS011;51813;40.666;16.602;2024-03-22T02:19:44;4.25;;;2.63;;
65230;SDS011;51813;40.666;16.602;2024-03-22T02:22:10;4.82;;;2.45;;
65230;SDS011;51813;40.666;16.602;2024-03-22T02:24:35;3.80;;;2.60;;
65230;SDS011;51813;40.666;16.602;2024-03-22T02:27:01;3.78;;;2.60;;
65230;SDS011;51813;40.666;16.602;2024-03-22T02:29:26;3.80;;;2.58;;
65230;SDS011;51813;40.666;16.602;2024-03-22T02:31:52;3.70;;;2.38;;
65230;SDS011;51813;40.666;16.602;2024-03-22T02:34:18;4.70;;;2.50;;
65230;SDS011;51813;40.666;16.602;2024-03-22T02:36:44;3.53;;;2.50;;
65230;SDS011;51813;40.666;16.602;2024-03-22T02:39:09;4.18;;;2.58;;
65230;SDS011;51813;40.666;16.602;2024-03-22T02:41:35;3.70;;;2.40;;
65230;SDS011;51813;40.666;16.602;2024-03-22T02:44:01;4.03;;;2.63;;
65230;SDS011;51813;40.666;16.602;2024-03-22T02:46:27;3.80;;;2.90;;
65230;SDS011;51813;40.666;16.602;2024-03-22T02:48:53;3.40;;;2.50;;
65230;SDS011;51813;40.666;16.602;2024-03-22T02:51:18;3.50;;;2.60;;
65230;SDS011;51813;40.666;16.602;2024-03-22T02:53:44;4.20;;;2.58;;
65230;SDS011;51813;40.666;16.602;2024-03-22T02:56:10;3.17;;;2.33;;
65230;SDS011;51813;40.666;16.602;2024-03-22T02:58:35;4.47;;;2.30;;
65230;SDS011;51813;40.666;16.602;2024-03-22T03:01:01;3.90;;;2.50;;
65230;SDS011;51813;40.666;16.602;2024-03-22T03:03:28;4.00;;;2.40;;
65230;SDS011;51813;40.666;16.602;2024-03-22T03:05:54;2.97;;;2.20;;
65230;SDS011;51813;40.666;16.602;2024-03-22T03:08:19;4.00;;;2.17;;
65230;SDS011;51813;40.666;16.602;2024-03-22T03:10:45;4.35;;;2.22;;
65230;SDS011;51813;40.666;16.602;2024-03-22T03:13:11;3.20;;;2.10;;
65230;SDS011;51813;40.666;16.602;2024-03-22T03:15:36;3.70;;;2.35;;
65230;SDS011;51813;40.666;16.602;2024-03-22T03:18:02;3.85;;;2.20;;
65230;SDS011;51813;40.666;16.602;2024-03-22T03:20:28;2.95;;;2.05;;
65230;SDS011;51813;40.666;16.602;2024-03-22T03:22:53;3.65;;;2.58;;
65230;SDS011;51813;40.666;16.602;2024-03-22T03:25:20;3.10;;;2.30;;
65230;SDS011;51813;40.666;16.602;2024-03-22T03:27:46;3.38;;;2.10;;
65230;SDS011;51813;40.666;16.602;2024-03-22T03:30:12;3.45;;;2.22;;
65230;SDS011;51813;40.666;16.602;2024-03-22T03:32:37;3.20;;;2.05;;
65230;SDS011;51813;40.666;16.602;2024-03-22T03:35:03;3.60;;;2.30;;
65230;SDS011;51813;40.666;16.602;2024-03-22T03:37:30;3.75;;;2.60;;
65230;SDS011;51813;40.666;16.602;2024-03-22T03:39:55;3.72;;;2.33;;
65230;SDS011;51813;40.666;16.602;2024-03-22T03:42:21;3.78;;;2.40;;
65230;SDS011;51813;40.666;16.602;2024-03-22T03:44:47;3.67;;;2.40;;
65230;SDS011;51813;40.666;16.602;2024-03-22T03:47:13;4.32;;;2.60;;
65230;SDS011;51813;40.666;16.602;2024-03-22T03:49:38;4.60;;;2.80;;
65230;SDS011;51813;40.666;16.602;2024-03-22T03:52:04;4.75;;;2.70;;
65230;SDS011;51813;40.666;16.602;2024-03-22T03:54:30;3.72;;;2.40;;
65230;SDS011;51813;40.666;16.602;2024-03-22T03:56:55;3.78;;;3.05;;
65230;SDS011;51813;40.666;16.602;2024-03-22T03:59:21;4.15;;;2.50;;
65230;SDS011;51813;40.666;16.602;2024-03-22T04:01:47;3.80;;;2.50;;
65230;SDS011;51813;40.666;16.602;2024-03-22T04:04:13;5.22;;;3.72;;
65230;SDS011;51813;40.666;16.602;2024-03-22T04:06:38;5.22;;;3.60;;
65230;SDS011;51813;40.666;16.602;2024-03-22T04:09:04;6.15;;;3.35;;
65230;SDS011;51813;40.666;16.602;2024-03-22T04:11:30;5.18;;;3.42;;
65230;SDS011;51813;40.666;16.602;2024-03-22T04:13:56;4.00;;;2.50;;
65230;SDS011;51813;40.666;16.602;2024-03-22T04:16:22;4.30;;;2.70;;
65230;SDS011;51813;40.666;16.602;2024-03-22T04:18:47;5.22;;;3.45;;
65230;SDS011;51813;40.666;16.602;2024-03-22T04:21:13;5.05;;;3.22;;
65230;SDS011;51813;40.666;16.602;2024-03-22T04:23:40;5.50;;;3.35;;
65230;SDS011;51813;40.666;16.602;2024-03-22T04:26:05;5.45;;;3.95;;
65230;SDS011;51813;40.666;16.602;2024-03-22T04:28:31;5.93;;;3.70;;
65230;SDS011;51813;40.666;16.602;2024-03-22T04:33:26;3.88;;;2.78;;
65230;SDS011;51813;40.666;16.602;2024-03-22T04:35:56;4.07;;;3.03;;
65230;SDS011;51813;40.666;16.602;2024-03-22T04:38:23;6.10;;;3.75;;
65230;SDS011;51813;40.666;16.602;2024-03-22T04:40:49;5.00;;;2.97;;
65230;SDS011;51813;40.666;16.602;2024-03-22T04:43:15;4.53;;;3.47;;
65230;SDS011;51813;40.666;16.602;2024-03-22T04:45:44;4.75;;;3.25;;
65230;SDS011;51813;40.666;16.602;2024-03-22T04:48:12;5.38;;;3.50;;
65230;SDS011;51813;40.666;16.602;2024-03-22T04:50:39;4.82;;;3.20;;
65230;SDS011;51813;40.666;16.602;2024-03-22T04:53:05;4.88;;;3.42;;
65230;SDS011;51813;40.666;16.602;2024-03-22T04:55:31;5.05;;;3.10;;
65230;SDS011;51813;40.666;16.602;2024-03-22T04:57:58;5.40;;;3.08;;
65230;SDS011;51813;40.666;16.602;2024-03-22T05:00:23;6.60;;;3.75;;
65230;SDS011;51813;40.666;16.602;2024-03-22T05:02:50;5.13;;;3.80;;
65230;SDS011;51813;40.666;16.602;2024-03-22T05:05:16;5.90;;;4.00;;
65230;SDS011;51813;40.666;16.602;2024-03-22T05:07:42;5.47;;;3.88;;
65230;SDS011;51813;40.666;16.602;2024-03-22T05:10:07;5.40;;;3.28;;
65230;SDS011;51813;40.666;16.602;2024-03-22T05:12:34;5.07;;;3.20;;
65230;SDS011;51813;40.666;16.602;2024-03-22T05:15:01;5.03;;;2.80;;
65230;SDS011;51813;40.666;16.602;2024-03-22T05:17:31;4.82;;;3.30;;
65230;SDS011;51813;40.666;16.602;2024-03-22T05:20:00;5.55;;;3.30;;
65230;SDS011;51813;40.666;16.602;2024-03-22T05:22:27;4.38;;;3.03;;
65230;SDS011;51813;40.666;16.602;2024-03-22T05:24:52;5.07;;;3.33;;
65230;SDS011;51813;40.666;16.602;2024-03-22T05:27:18;4.32;;;2.80;;
65230;SDS011;51813;40.666;16.602;2024-03-22T05:29:44;4.78;;;3.03;;
65230;SDS011;51813;40.666;16.602;2024-03-22T05:32:10;6.22;;;3.30;;
65230;SDS011;51813;40.666;16.602;2024-03-22T05:34:35;5.32;;;3.08;;
65230;SDS011;51813;40.666;16.602;2024-03-22T05:37:01;4.68;;;3.20;;
65230;SDS011;51813;40.666;16.602;2024-03-22T05:39:28;5.40;;;3.20;;
65230;SDS011;51813;40.666;16.602;2024-03-22T05:41:53;5.22;;;3.10;;
65230;SDS011;51813;40.666;16.602;2024-03-22T05:44:21;4.75;;;2.88;;
65230;SDS011;51813;40.666;16.602;2024-03-22T05:46:47;5.15;;;3.17;;
65230;SDS011;51813;40.666;16.602;2024-03-22T05:49:13;4.22;;;3.13;;
65230;SDS011;51813;40.666;16.602;2024-03-22T05:51:38;4.07;;;2.90;;
65230;SDS011;51813;40.666;16.602;2024-03-22T05:54:04;5.05;;;3.28;;
65230;SDS011;51813;40.666;16.602;2024-03-22T05:56:30;5.10;;;2.83;;
65230;SDS011;51813;40.666;16.602;2024-03-22T05:58:56;5.03;;;3.50;;
65230;SDS011;51813;40.666;16.602;2024-03-22T06:01:22;5.15;;;3.25;;
65230;SDS011;51813;40.666;16.602;2024-03-22T06:03:47;5.25;;;3.40;;
65230;SDS011;51813;40.666;16.602;2024-03-22T06:06:13;4.82;;;2.92;;
65230;SDS011;51813;40.666;16.602;2024-03-22T06:08:38;5.10;;;2.95;;
65230;SDS011;51813;40.666;16.602;2024-03-22T06:11:06;4.20;;;3.10;;
65230;SDS011;51813;40.666;16.602;2024-03-22T06:13:33;4.07;;;2.60;;
65230;SDS011;51813;40.666;16.602;2024-03-22T06:16:00;4.30;;;2.75;;
65230;SDS011;51813;40.666;16.602;2024-03-22T06:18:25;4.25;;;2.85;;
65230;SDS011;51813;40.666;16.602;2024-03-22T06:20:51;6.15;;;3.72;;
65230;SDS011;51813;40.666;16.602;2024-03-22T06:23:19;3.67;;;2.60;;
65230;SDS011;51813;40.666;16.602;2024-03-22T06:25:52;4.18;;;2.80;;
65230;SDS011;51813;40.666;16.602;2024-03-22T06:28:18;4.25;;;2.75;;
65230;SDS011;51813;40.666;16.602;2024-03-22T06:30:44;4.65;;;3.05;;
65230;SDS011;51813;40.666;16.602;2024-03-22T06:33:10;4.50;;;2.83;;
65230;SDS011;51813;40.666;16.602;2024-03-22T06:35:36;3.83;;;2.67;;
65230;SDS011;51813;40.666;16.602;2024-03-22T06:38:01;4.90;;;3.20;;
65230;SDS011;51813;40.666;16.602;2024-03-22T06:40:28;4.65;;;3.08;;
65230;SDS011;51813;40.666;16.602;2024-03-22T06:42:54;5.07;;;3.03;;
65230;SDS011;51813;40.666;16.602;2024-03-22T06:45:19;4.68;;;3.03;;
65230;SDS011;51813;40.666;16.602;2024-03-22T06:47:45;4.78;;;2.80;;
65230;SDS011;51813;40.666;16.602;2024-03-22T06:50:11;4.60;;;2.80;;
65230;SDS011;51813;40.666;16.602;2024-03-22T06:52:38;4.47;;;2.55;;
65230;SDS011;51813;40.666;16.602;2024-03-22T06:55:04;4.43;;;2.90;;
65230;SDS011;51813;40.666;16.602;2024-03-22T06:57:30;5.07;;;3.28;;
65230;SDS011;51813;40.666;16.602;2024-03-22T06:59:55;4.25;;;2.80;;
65230;SDS011;51813;40.666;16.602;2024-03-22T07:02:21;4.97;;;2.80;;
65230;SDS011;51813;40.666;16.602;2024-03-22T07:04:47;5.05;;;2.63;;
65230;SDS011;51813;40.666;16.602;2024-03-22T07:07:12;4.45;;;3.00;;
65230;SDS011;51813;40.666;16.602;2024-03-22T07:09:38;4.07;;;2.63;;
65230;SDS011;51813;40.666;16.602;2024-03-22T07:12:04;4.10;;;2.50;;
65230;SDS011;51813;40.666;16.602;2024-03-22T07:14:30;4.05;;;2.67;;
65230;SDS011;51813;40.666;16.602;2024-03-22T07:16:55;4.88;;;3.00;;
65230;SDS011;51813;40.666;16.602;2024-03-22T07:19:21;4.78;;;2.83;;
65230;SDS011;51813;40.666;16.602;2024-03-22T07:21:47;4.93;;;2.60;;
65230;SDS011;51813;40.666;16.602;2024-03-22T07:24:13;4.18;;;2.60;;
65230;SDS011;51813;40.666;16.602;2024-03-22T07:26:39;4.32;;;2.60;;
65230;SDS011;51813;40.666;16.602;2024-03-22T07:29:05;4.32;;;2.80;;
65230;SDS011;51813;40.666;16.602;2024-03-22T07:31:32;3.53;;;2.40;;
65230;SDS011;51813;40.666;16.602;2024-03-22T07:33:57;4.22;;;2.20;;
65230;SDS011;51813;40.666;16.602;2024-03-22T07:36:23;4.60;;;2.65;;
65230;SDS011;51813;40.666;16.602;2024-03-22T07:38:49;4.70;;;2.50;;
65230;SDS011;51813;40.666;16.602;2024-03-22T07:41:14;4.13;;;2.38;;
65230;SDS011;51813;40.666;16.602;2024-03-22T07:43:40;4.07;;;2.47;;
65230;SDS011;51813;40.666;16.602;2024-03-22T07:46:06;3.47;;;2.42;;
65230;SDS011;51813;40.666;16.602;2024-03-22T07:48:31;4.57;;;2.60;;
65230;SDS011;51813;40.666;16.602;2024-03-22T07:50:57;4.35;;;2.55;;
65230;SDS011;51813;40.666;16.602;2024-03-22T07:53:24;5.03;;;2.70;;
65230;SDS011;51813;40.666;16.602;2024-03-22T07:55:49;4.57;;;2.85;;
65230;SDS011;51813;40.666;16.602;2024-03-22T07:58:15;6.45;;;2.80;;
65230;SDS011;51813;40.666;16.602;2024-03-22T08:00:41;4.30;;;2.47;;
65230;SDS011;51813;40.666;16.602;2024-03-22T08:03:06;5.10;;;2.65;;
65230;SDS011;51813;40.666;16.602;2024-03-22T08:05:33;3.50;;;2.28;;
65230;SDS011;51813;40.666;16.602;2024-03-22T08:07:59;5.20;;;2.63;;
65230;SDS011;51813;40.666;16.602;2024-03-22T08:10:24;4.35;;;2.53;;
65230;SDS011;51813;40.666;16.602;2024-03-22T08:12:50;3.90;;;2.53;;
65230;SDS011;51813;40.666;16.602;2024-03-22T08:15:16;4.82;;;2.53;;
65230;SDS011;51813;40.666;16.602;2024-03-22T08:17:41;3.92;;;2.60;;
65230;SDS011;51813;40.666;16.602;2024-03-22T08:20:07;4.20;;;2.42;;
65230;SDS011;51813;40.666;16.602;2024-03-22T08:22:33;5.72;;;3.38;;
65230;SDS011;51813;40.666;16.602;2024-03-22T08:24:59;4.07;;;2.60;;
65230;SDS011;51813;40.666;16.602;2024-03-22T08:27:27;5.53;;;2.80;;
65230;SDS011;51813;40.666;16.602;2024-03-22T08:29:52;3.70;;;2.53;;
65230;SDS011;51813;40.666;16.602;2024-03-22T08:32:18;4.22;;;2.85;;
65230;SDS011;51813;40.666;16.602;2024-03-22T08:34:44;3.72;;;2.33;;
65230;SDS011;51813;40.666;16.602;2024-03-22T08:37:10;4.38;;;2.80;;
65230;SDS011;51813;40.666;16.602;2024-03-22T08:39:36;3.58;;;2.53;;
65230;SDS011;51813;40.666;16.602;2024-03-22T08:42:02;5.05;;;3.08;;
65230;SDS011;51813;40.666;16.602;2024-03-22T08:44:30;5.05;;;2.72;;
65230;SDS011;51813;40.666;16.602;2024-03-22T08:46:56;4.72;;;3.00;;
65230;SDS011;51813;40.666;16.602;2024-03-22T08:49:23;4.43;;;2.78;;
65230;SDS011;51813;40.666;16.602;2024-03-22T08:51:49;4.00;;;2.80;;
65230;SDS011;51813;40.666;16.602;2024-03-22T08:54:14;4.57;;;2.80;;
65230;SDS011;51813;40.666;16.602;2024-03-22T08:56:40;4.28;;;2.95;;
65230;SDS011;51813;40.666;16.602;2024-03-22T08:59:06;4.30;;;2.78;;
65230;SDS011;51813;40.666;16.602;2024-03-22T09:01:32;5.20;;;2.85;;
65230;SDS011;51813;40.666;16.602;2024-03-22T09:03:57;5.03;;;3.20;;
65230;SDS011;51813;40.666;16.602;2024-03-22T09:06:23;4.53;;;2.90;;
65230;SDS011;51813;40.666;16.602;2024-03-22T09:08:49;4.50;;;2.63;;
65230;SDS011;51813;40.666;16.602;2024-03-22T09:11:14;5.38;;;3.10;;
65230;SDS011;51813;40.666;16.602;2024-03-22T09:13:40;5.70;;;3.00;;
65230;SDS011;51813;40.666;16.602;2024-03-22T09:16:06;4.13;;;2.92;;
65230;SDS011;51813;40.666;16.602;2024-03-22T09:18:31;3.80;;;2.63;;
65230;SDS011;51813;40.666;16.602;2024-03-22T09:20:58;4.65;;;2.97;;
65230;SDS011;51813;40.666;16.602;2024-03-22T09:23:23;5.70;;;3.20;;
65230;SDS011;51813;40.666;16.602;2024-03-22T09:25:49;6.10;;;3.30;;
65230;SDS011;51813;40.666;16.602;2024-03-22T09:28:15;5.07;;;3.30;;
65230;SDS011;51813;40.666;16.602;2024-03-22T09:30:40;4.82;;;3.05;;
65230;SDS011;51813;40.666;16.602;2024-03-22T09:33:08;4.93;;;3.03;;
65230;SDS011;51813;40.666;16.602;2024-03-22T09:35:34;5.78;;;3.22;;
65230;SDS011;51813;40.666;16.602;2024-03-22T09:38:00;5.30;;;3.28;;
65230;SDS011;51813;40.666;16.602;2024-03-22T09:40:26;5.43;;;3.30;;
65230;SDS011;51813;40.666;16.602;2024-03-22T09:42:52;4.72;;;2.80;;
65230;SDS011;51813;40.666;16.602;2024-03-22T09:45:18;5.35;;;3.25;;
65230;SDS011;51813;40.666;16.602;2024-03-22T09:47:45;4.60;;;2.72;;
65230;SDS011;51813;40.666;16.602;2024-03-22T09:50:15;3.75;;;2.90;;
65230;SDS011;51813;40.666;16.602;2024-03-22T09:52:41;4.05;;;3.10;;
65230;SDS011;51813;40.666;16.602;2024-03-22T09:55:07;4.35;;;3.13;;
65230;SDS011;51813;40.666;16.602;2024-03-22T09:57:37;4.25;;;2.92;;
65230;SDS011;51813;40.666;16.602;2024-03-22T10:00:06;5.40;;;3.43;;
65230;SDS011;51813;40.666;16.602;2024-03-22T10:02:33;4.85;;;3.00;;
65230;SDS011;51813;40.666;16.602;2024-03-22T10:04:59;5.72;;;3.03;;
65230;SDS011;51813;40.666;16.602;2024-03-22T10:07:27;4.05;;;2.80;;
65230;SDS011;51813;40.666;16.602;2024-03-22T10:09:53;4.82;;;2.88;;
65230;SDS011;51813;40.666;16.602;2024-03-22T10:12:22;4.60;;;3.20;;
65230;SDS011;51813;40.666;16.602;2024-03-22T10:14:48;5.22;;;2.97;;
65230;SDS011;51813;40.666;16.602;2024-03-22T10:17:13;4.45;;;3.42;;
65230;SDS011;51813;40.666;16.602;2024-03-22T10:19:39;4.72;;;3.17;;
65230;SDS011;51813;40.666;16.602;2024-03-22T10:22:05;4.30;;;3.00;;
65230;SDS011;51813;40.666;16.602;2024-03-22T10:24:31;6.32;;;4.05;;
65230;SDS011;51813;40.666;16.602;2024-03-22T10:26:58;5.38;;;3.58;;
65230;SDS011;51813;40.666;16.602;2024-03-22T10:29:24;6.18;;;4.22;;
65230;SDS011;51813;40.666;16.602;2024-03-22T10:31:50;5.32;;;3.85;;
65230;SDS011;51813;40.666;16.602;2024-03-22T10:34:17;8.07;;;4.05;;
65230;SDS011;51813;40.666;16.602;2024-03-22T10:36:43;6.55;;;4.00;;
65230;SDS011;51813;40.666;16.602;2024-03-22T10:39:10;7.55;;;3.58;;
65230;SDS011;51813;40.666;16.602;2024-03-22T10:41:38;5.20;;;3.60;;
65230;SDS011;51813;40.666;16.602;2024-03-22T10:44:04;7.25;;;5.15;;
65230;SDS011;51813;40.666;16.602;2024-03-22T10:46:30;5.60;;;4.53;;
65230;SDS011;51813;40.666;16.602;2024-03-22T10:48:59;8.45;;;5.18;;
65230;SDS011;51813;40.666;16.602;2024-03-22T10:51:29;7.68;;;5.22;;
65230;SDS011;51813;40.666;16.602;2024-03-22T10:53:55;6.55;;;4.70;;
65230;SDS011;51813;40.666;16.602;2024-03-22T10:56:23;8.27;;;4.97;;
65230;SDS011;51813;40.666;16.602;2024-03-22T10:58:50;8.00;;;4.55;;
65230;SDS011;51813;40.666;16.602;2024-03-22T11:01:24;10.35;;;5.53;;
65230;SDS011;51813;40.666;16.602;2024-03-22T11:03:50;8.18;;;4.70;;
65230;SDS011;51813;40.666;16.602;2024-03-22T11:06:19;9.80;;;5.68;;
65230;SDS011;51813;40.666;16.602;2024-03-22T11:08:49;7.40;;;4.75;;
65230;SDS011;51813;40.666;16.602;2024-03-22T11:11:17;8.52;;;5.18;;
65230;SDS011;51813;40.666;16.602;2024-03-22T11:13:46;12.10;;;5.75;;
65230;SDS011;51813;40.666;16.602;2024-03-22T11:16:16;8.55;;;5.25;;
65230;SDS011;51813;40.666;16.602;2024-03-22T11:18:42;8.60;;;5.75;;
65230;SDS011;51813;40.666;16.602;2024-03-22T11:21:07;7.40;;;5.35;;
65230;SDS011;51813;40.666;16.602;2024-03-22T11:23:34;8.90;;;5.15;;
65230;SDS011;51813;40.666;16.602;2024-03-22T11:26:01;7.18;;;5.18;;
65230;SDS011;51813;40.666;16.602;2024-03-22T11:28:28;7.82;;;5.13;;
65230;SDS011;51813;40.666;16.602;2024-03-22T11:30:54;6.95;;;5.00;;
65230;SDS011;51813;40.666;16.602;2024-03-22T11:33:19;6.68;;;4.80;;
65230;SDS011;51813;40.666;16.602;2024-03-22T11:35:45;6.03;;;4.32;;
65230;SDS011;51813;40.666;16.602;2024-03-22T11:38:11;7.00;;;5.07;;
65230;SDS011;51813;40.666;16.602;2024-03-22T11:40:37;6.55;;;4.32;;
65230;SDS011;51813;40.666;16.602;2024-03-22T11:43:03;6.75;;;4.50;;
65230;SDS011;51813;40.666;16.602;2024-03-22T11:45:29;7.13;;;4.57;;
65230;SDS011;51813;40.666;16.602;2024-03-22T11:48:01;9.45;;;5.07;;
65230;SDS011;51813;40.666;16.602;2024-03-22T11:50:27;7.43;;;4.50;;
65230;SDS011;51813;40.666;16.602;2024-03-22T11:52:53;6.07;;;4.75;;
65230;SDS011;51813;40.666;16.602;2024-03-22T11:55:19;6.97;;;4.65;;
65230;SDS011;51813;40.666;16.602;2024-03-22T11:57:48;6.90;;;4.22;;
65230;SDS011;51813;40.666;16.602;2024-03-22T12:00:14;7.55;;;4.75;;
65230;SDS011;51813;40.666;16.602;2024-03-22T12:02:42;9.43;;;4.70;;
65230;SDS011;51813;40.666;16.602;2024-03-22T12:05:08;6.53;;;4.45;;
65230;SDS011;51813;40.666;16.602;2024-03-22T12:07:35;6.70;;;5.00;;
65230;SDS011;51813;40.666;16.602;2024-03-22T12:10:01;6.40;;;4.15;;
65230;SDS011;51813;40.666;16.602;2024-03-22T12:12:27;6.97;;;4.32;;
65230;SDS011;51813;40.666;16.602;2024-03-22T12:14:52;6.18;;;4.13;;
65230;SDS011;51813;40.666;16.602;2024-03-22T12:17:18;6.13;;;4.55;;
65230;SDS011;51813;40.666;16.602;2024-03-22T12:19:44;9.38;;;4.80;;
65230;SDS011;51813;40.666;16.602;2024-03-22T12:22:10;6.60;;;4.53;;
65230;SDS011;51813;40.666;16.602;2024-03-22T12:24:36;6.70;;;4.57;;
65230;SDS011;51813;40.666;16.602;2024-03-22T12:27:02;6.35;;;4.40;;
65230;SDS011;51813;40.666;16.602;2024-03-22T12:29:28;5.78;;;4.45;;
65230;SDS011;51813;40.666;16.602;2024-03-22T12:31:54;4.55;;;3.60;;
65230;SDS011;51813;40.666;16.602;2024-03-22T12:34:19;6.43;;;4.50;;
65230;SDS011;51813;40.666;16.602;2024-03-22T12:36:45;5.53;;;3.70;;
65230;SDS011;51813;40.666;16.602;2024-03-22T12:39:11;6.82;;;4.57;;
65230;SDS011;51813;40.666;16.602;2024-03-22T12:41:36;7.68;;;4.28;;
65230;SDS011;51813;40.666;16.602;2024-03-22T12:44:02;6.53;;;4.57;;
65230;SDS011;51813;40.666;16.602;2024-03-22T12:46:28;6.38;;;4.10;;
65230;SDS011;51813;40.666;16.602;2024-03-22T12:48:54;5.95;;;4.10;;
65230;SDS011;51813;40.666;16.602;2024-03-22T12:51:20;6.07;;;3.97;;
65230;SDS011;51813;40.666;16.602;2024-03-22T12:53:46;6.13;;;4.35;;
65230;SDS011;51813;40.666;16.602;2024-03-22T12:56:12;6.35;;;4.00;;
65230;SDS011;51813;40.666;16.602;2024-03-22T12:58:37;6.22;;;4.60;;
65230;SDS011;51813;40.666;16.602;2024-03-22T13:01:04;6.50;;;4.32;;
65230;SDS011;51813;40.666;16.602;2024-03-22T13:03:33;6.53;;;4.70;;
65230;SDS011;51813;40.666;16.602;2024-03-22T13:05:59;6.22;;;4.47;;
65230;SDS011;51813;40.666;16.602;2024-03-22T13:08:24;6.35;;;4.05;;
65230;SDS011;51813;40.666;16.602;2024-03-22T13:10:50;7.57;;;4.47;;
65230;SDS011;51813;40.666;16.602;2024-03-22T13:13:17;6.90;;;4.70;;
65230;SDS011;51813;40.666;16.602;2024-03-22T13:15:43;6.18;;;4.43;;
65230;SDS011;51813;40.666;16.602;2024-03-22T13:18:08;6.38;;;4.45;;
65230;SDS011;51813;40.666;16.602;2024-03-22T13:20:34;6.30;;;4.25;;
65230;SDS011;51813;40.666;16.602;2024-03-22T13:23:01;7.43;;;4.80;;
65230;SDS011;51813;40.666;16.602;2024-03-22T13:25:27;7.38;;;4.50;;
65230;SDS011;51813;40.666;16.602;2024-03-22T13:27:53;5.25;;;4.28;;
65230;SDS011;51813;40.666;16.602;2024-03-22T13:30:19;7.15;;;4.57;;
65230;SDS011;51813;40.666;16.602;2024-03-22T13:32:44;6.97;;;4.60;;
65230;SDS011;51813;40.666;16.602;2024-03-22T13:35:10;6.07;;;4.47;;
65230;SDS011;51813;40.666;16.602;2024-03-22T13:37:36;6.82;;;4.65;;
65230;SDS011;51813;40.666;16.602;2024-03-22T13:40:01;8.15;;;4.82;;
65230;SDS011;51813;40.666;16.602;2024-03-22T13:42:28;6.05;;;4.53;;
65230;SDS011;51813;40.666;16.602;2024-03-22T13:44:53;9.70;;;4.40;;
65230;SDS011;51813;40.666;16.602;2024-03-22T13:47:21;8.52;;;4.50;;
65230;SDS011;51813;40.666;16.602;2024-03-22T13:49:47;11.27;;;4.40;;
65230;SDS011;51813;40.666;16.602;2024-03-22T13:52:13;11.77;;;5.25;;
65230;SDS011;51813;40.666;16.602;2024-03-22T13:54:39;5.68;;;4.70;;
65230;SDS011;51813;40.666;16.602;2024-03-22T13:57:05;7.38;;;4.57;;
65230;SDS011;51813;40.666;16.602;2024-03-22T13:59:31;7.03;;;4.10;;
65230;SDS011;51813;40.666;16.602;2024-03-22T14:01:56;6.43;;;4.40;;
65230;SDS011;51813;40.666;16.602;2024-03-22T14:04:23;5.63;;;4.28;;
65230;SDS011;51813;40.666;16.602;2024-03-22T14:06:51;7.43;;;5.00;;
65230;SDS011;51813;40.666;16.602;2024-03-22T14:09:16;6.63;;;4.35;;
65230;SDS011;51813;40.666;16.602;2024-03-22T14:11:42;7.32;;;4.78;;
65230;SDS011;51813;40.666;16.602;2024-03-22T14:14:11;8.05;;;4.80;;
65230;SDS011;51813;40.666;16.602;2024-03-22T14:16:37;6.55;;;5.03;;
65230;SDS011;51813;40.666;16.602;2024-03-22T14:19:04;5.95;;;4.57;;
65230;SDS011;51813;40.666;16.602;2024-03-22T14:21:29;8.05;;;4.72;;
65230;SDS011;51813;40.666;16.602;2024-03-22T14:23:55;5.93;;;4.60;;
65230;SDS011;51813;40.666;16.602;2024-03-22T14:26:21;5.65;;;4.53;;
65230;SDS011;51813;40.666;16.602;2024-03-22T14:28:48;6.65;;;4.75;;